Isabella — 9HSL7 — position and weather

sailwx.info

Track history (hours):
 
Tides and Currents Weather Stations Pressure Air Temp Water Temp Dewpoint Dewpoint Depression Visibility Wind Speed Wind Dir Waves Ship Positions

Isabella

Last reported at 2015-Jul-21 06:32 UTC. Time now 2015-Jul-28 10:25 UTC.
Position N 36°59' E 023°45'.

Length 244 m; draft 13.6 m.

Type: Tanker. MMSI: 215545000.

Date/timePositionNaut miles runAvg speedWind from/ knotsBaromVisibWave heightAir tempDewpointWater temp
2015-Jul-21 06:32N 36°59' E 023°45'5312.3
2015-Jul-21 02:13N 37°39' E 024°29'812.0
2015-Jul-21 01:31N 37°47' E 024°32'213 6.1
2015-Jul-19 14:33N 40°35' E 027°20'6410.5
2015-Jul-19 08:30N 40°54' E 028°41'11 9.9
2015-Jul-19 07:25N 40°56' E 028°54'3 3.2
2015-Jul-19 06:30N 40°58' E 028°58'272 7.6
2015-Jul-17 18:33N 43°16' E 034°14'1712.8
2015-Jul-17 17:13N 43°24' E 034°35'912.7
2015-Jul-17 16:32N 43°27' E 034°45'1312.4
2015-Jul-17 15:31N 43°33' E 035°01'1312.4
2015-Jul-17 14:28N 43°39' E 035°17'1212.4
2015-Jul-17 13:30N 43°45' E 035°32'8512.3
2015-Jul-17 06:33N 44°23' E 037°17'1312.8
2015-Jul-17 05:33N 44°29' E 037°33'1010.1
2015-Jul-17 04:33N 44°35' E 037°44'1 0.9
2015-Jul-17 03:34N 44°36' E 037°45'0 0.4
2015-Jul-17 02:33N 44°36' E 037°44'0 0.2
2015-Jul-17 01:33N 44°36' E 037°44'4 3.9
2015-Jul-17 00:34N 44°35' E 037°38'3 0.2
2015-Jul-16 08:05N 44°38' E 037°37'1 1.8
2015-Jul-16 07:34N 44°38' E 037°35'2 2.5
2015-Jul-16 06:34N 44°36' E 037°37'4 3.6
2015-Jul-16 05:33N 44°36' E 037°42'9 8.7
2015-Jul-16 04:34N 44°36' E 037°54'0 0.2
2015-Jul-16 03:31N 44°36' E 037°54'0 0.0
2015-Jul-16 02:31N 44°36' E 037°54'0 0.0
2015-Jul-16 01:31N 44°36' E 037°54'0 0.0
2015-Jul-16 00:31N 44°36' E 037°54'0 0.0
2015-Jul-15 23:31N 44°36' E 037°54'0 0.0
2015-Jul-15 22:31N 44°36' E 037°54'0 0.0
2015-Jul-15 21:31N 44°36' E 037°54'0 0.0
2015-Jul-15 20:31N 44°36' E 037°54'0 0.0
2015-Jul-15 19:31N 44°36' E 037°54'0 0.0
2015-Jul-15 18:31N 44°36' E 037°54'0 0.0
2015-Jul-15 17:31N 44°36' E 037°54'0 0.0
2015-Jul-15 16:31N 44°36' E 037°54'0 0.0
2015-Jul-15 15:31N 44°36' E 037°54'0 0.0
2015-Jul-15 14:31N 44°36' E 037°54'0 0.0
2015-Jul-15 13:31N 44°36' E 037°54'0 0.0
2015-Jul-15 12:31N 44°36' E 037°54'0 0.0
2015-Jul-15 11:31N 44°36' E 037°54'0 0.0
2015-Jul-15 10:31N 44°36' E 037°54'0 0.0
2015-Jul-15 09:31N 44°36' E 037°54'0 0.0
2015-Jul-15 08:31N 44°36' E 037°54'0 0.1
2015-Jul-15 07:31N 44°36' E 037°54'0 0.0
2015-Jul-15 06:31N 44°36' E 037°54'0 0.0
2015-Jul-15 05:31N 44°36' E 037°54'0 0.0
2015-Jul-15 04:31N 44°36' E 037°54'0 0.0
2015-Jul-15 03:31N 44°36' E 037°54'0 0.0
2015-Jul-15 02:33N 44°36' E 037°54'0 0.0
2015-Jul-15 01:33N 44°36' E 037°54'0 0.0
2015-Jul-15 00:33N 44°36' E 037°54'0 0.0
2015-Jul-14 23:30N 44°36' E 037°54'0 0.0
2015-Jul-14 22:33N 44°36' E 037°54'0 0.0
2015-Jul-14 21:33N 44°36' E 037°54'0 0.0
2015-Jul-14 20:33N 44°36' E 037°54'0 0.0
2015-Jul-14 19:33N 44°36' E 037°54'0 0.0
2015-Jul-14 18:33N 44°36' E 037°54'0 0.0
2015-Jul-14 17:33N 44°36' E 037°54'0 0.0
2015-Jul-14 16:33N 44°36' E 037°54'0 0.0
2015-Jul-14 15:33N 44°36' E 037°54'0 0.0
2015-Jul-14 14:33N 44°36' E 037°54'0 0.0
2015-Jul-14 13:33N 44°36' E 037°54'0 0.0
2015-Jul-14 12:27N 44°36' E 037°54'0 0.0
2015-Jul-14 11:33N 44°36' E 037°54'0 0.0
2015-Jul-14 10:33N 44°36' E 037°54'0 0.0
2015-Jul-14 09:33N 44°36' E 037°54'0 0.0
2015-Jul-14 08:33N 44°36' E 037°54'0 0.0
2015-Jul-14 07:33N 44°36' E 037°54'0 0.0
2015-Jul-14 06:33N 44°36' E 037°54'0 0.0
2015-Jul-14 05:33N 44°36' E 037°54'0 0.0
2015-Jul-14 04:33N 44°36' E 037°54'0 0.0
2015-Jul-14 03:30N 44°36' E 037°54'0 0.0
2015-Jul-14 02:33N 44°36' E 037°54'0 0.0
2015-Jul-14 01:33N 44°36' E 037°54'0 0.0
2015-Jul-14 00:33N 44°36' E 037°54'0 0.0
2015-Jul-13 23:33N 44°36' E 037°54'0 0.0
2015-Jul-13 22:33N 44°36' E 037°54'0 0.0
2015-Jul-13 21:33N 44°36' E 037°54'0 0.0
2015-Jul-13 20:33N 44°36' E 037°54'0 0.0
2015-Jul-13 19:33N 44°36' E 037°54'0 0.0
2015-Jul-13 18:33N 44°36' E 037°54'0 0.0
2015-Jul-13 17:30N 44°36' E 037°54'0 0.0
2015-Jul-13 16:33N 44°36' E 037°54'0 0.0
2015-Jul-13 15:33N 44°36' E 037°54'0 0.0
2015-Jul-13 14:33N 44°36' E 037°54'0 0.0
2015-Jul-13 13:33N 44°36' E 037°54'0 0.0
2015-Jul-13 12:33N 44°36' E 037°54'0 0.0
2015-Jul-13 11:33N 44°36' E 037°54'0 0.0
2015-Jul-13 10:33N 44°36' E 037°54'0 0.0
2015-Jul-13 09:33N 44°36' E 037°54'0 0.0
2015-Jul-13 08:33N 44°36' E 037°54'0 0.0
2015-Jul-13 07:33N 44°36' E 037°54'0 0.0
2015-Jul-13 06:33N 44°36' E 037°54'0 0.1
2015-Jul-13 05:33N 44°36' E 037°54'0 0.0
2015-Jul-13 04:33N 44°36' E 037°54'0 0.0
2015-Jul-13 03:33N 44°36' E 037°54'0 0.1
2015-Jul-13 02:33N 44°36' E 037°54'0 0.2
2015-Jul-13 01:33N 44°36' E 037°54'0 0.0
2015-Jul-13 00:33N 44°36' E 037°54'0 0.0
2015-Jul-12 23:33N 44°36' E 037°54'0 0.0
2015-Jul-12 22:33N 44°36' E 037°54'0 0.0
2015-Jul-12 21:33N 44°36' E 037°54'0 0.0
2015-Jul-12 20:33N 44°36' E 037°54'0 0.0
2015-Jul-12 19:33N 44°36' E 037°54'0 0.0
2015-Jul-12 18:33N 44°36' E 037°54'0 0.0
2015-Jul-12 17:33N 44°36' E 037°54'0 0.1
2015-Jul-12 16:33N 44°36' E 037°54'0 0.0
2015-Jul-12 15:33N 44°36' E 037°54'0 0.0
2015-Jul-12 14:33N 44°36' E 037°54'0 0.0
2015-Jul-12 13:33N 44°36' E 037°54'0 0.0
2015-Jul-12 12:33N 44°36' E 037°54'0 0.0
2015-Jul-12 11:33N 44°36' E 037°54'0 0.0
2015-Jul-12 10:33N 44°36' E 037°54'0 0.1
2015-Jul-12 09:18N 44°36' E 037°54'0 0.1
2015-Jul-12 08:33N 44°36' E 037°54'0 0.0
2015-Jul-11 17:09N 44°36' E 037°54'0 0.0
2015-Jul-11 16:33N 44°36' E 037°54'0 0.0
2015-Jul-11 15:33N 44°36' E 037°54'0 0.0
2015-Jul-11 14:33N 44°36' E 037°54'0 0.0
2015-Jul-11 13:33N 44°36' E 037°54'0 0.0
2015-Jul-11 12:33N 44°36' E 037°54'0 0.0
2015-Jul-11 11:33N 44°36' E 037°54'0 0.0
2015-Jul-11 10:33N 44°36' E 037°54'0 0.3
2015-Jul-11 09:33N 44°36' E 037°54'0 0.0
2015-Jul-11 08:33N 44°36' E 037°54'0 0.1
2015-Jul-11 07:33N 44°36' E 037°54'0 0.1
2015-Jul-11 06:33N 44°36' E 037°54'  
Track history (hours):
 
Tides and Currents Weather Stations Pressure Air Temp Water Temp Dewpoint Dewpoint Depression Visibility Wind Speed Wind Dir Waves Ship Positions

Isabella

Last reported at 2015-Jul-21 06:32 UTC. Time now 2015-Jul-28 10:25 UTC.
Position N 36°59' E 023°45'.

Length 244 m; draft 13.6 m.

Type: Tanker. MMSI: 215545000.

Date/timePositionNaut miles runAvg speedWind from/ knotsBaromVisibWave heightAir tempDewpointWater temp
2015-Jul-21 06:32N 36°59' E 023°45'5312.3
2015-Jul-21 02:13N 37°39' E 024°29'812.0
2015-Jul-21 01:31N 37°47' E 024°32'213 6.1
2015-Jul-19 14:33N 40°35' E 027°20'6410.5
2015-Jul-19 08:30N 40°54' E 028°41'11 9.9
2015-Jul-19 07:25N 40°56' E 028°54'3 3.2
2015-Jul-19 06:30N 40°58' E 028°58'272 7.6
2015-Jul-17 18:33N 43°16' E 034°14'1712.8
2015-Jul-17 17:13N 43°24' E 034°35'912.7
2015-Jul-17 16:32N 43°27' E 034°45'1312.4
2015-Jul-17 15:31N 43°33' E 035°01'1312.4
2015-Jul-17 14:28N 43°39' E 035°17'1212.4
2015-Jul-17 13:30N 43°45' E 035°32'8512.3
2015-Jul-17 06:33N 44°23' E 037°17'1312.8
2015-Jul-17 05:33N 44°29' E 037°33'1010.1
2015-Jul-17 04:33N 44°35' E 037°44'1 0.9
2015-Jul-17 03:34N 44°36' E 037°45'0 0.4
2015-Jul-17 02:33N 44°36' E 037°44'0 0.2
2015-Jul-17 01:33N 44°36' E 037°44'4 3.9
2015-Jul-17 00:34N 44°35' E 037°38'3 0.2
2015-Jul-16 08:05N 44°38' E 037°37'1 1.8
2015-Jul-16 07:34N 44°38' E 037°35'2 2.5
2015-Jul-16 06:34N 44°36' E 037°37'4 3.6
2015-Jul-16 05:33N 44°36' E 037°42'9 8.7
2015-Jul-16 04:34N 44°36' E 037°54'0 0.2
2015-Jul-16 03:31N 44°36' E 037°54'0 0.0
2015-Jul-16 02:31N 44°36' E 037°54'0 0.0
2015-Jul-16 01:31N 44°36' E 037°54'0 0.0
2015-Jul-16 00:31N 44°36' E 037°54'0 0.0
2015-Jul-15 23:31N 44°36' E 037°54'0 0.0
2015-Jul-15 22:31N 44°36' E 037°54'0 0.0
2015-Jul-15 21:31N 44°36' E 037°54'0 0.0
2015-Jul-15 20:31N 44°36' E 037°54'0 0.0
2015-Jul-15 19:31N 44°36' E 037°54'0 0.0
2015-Jul-15 18:31N 44°36' E 037°54'0 0.0
2015-Jul-15 17:31N 44°36' E 037°54'0 0.0
2015-Jul-15 16:31N 44°36' E 037°54'0 0.0
2015-Jul-15 15:31N 44°36' E 037°54'0 0.0
2015-Jul-15 14:31N 44°36' E 037°54'0 0.0
2015-Jul-15 13:31N 44°36' E 037°54'0 0.0
2015-Jul-15 12:31N 44°36' E 037°54'0 0.0
2015-Jul-15 11:31N 44°36' E 037°54'0 0.0
2015-Jul-15 10:31N 44°36' E 037°54'0 0.0
2015-Jul-15 09:31N 44°36' E 037°54'0 0.0
2015-Jul-15 08:31N 44°36' E 037°54'0 0.1
2015-Jul-15 07:31N 44°36' E 037°54'0 0.0
2015-Jul-15 06:31N 44°36' E 037°54'0 0.0
2015-Jul-15 05:31N 44°36' E 037°54'0 0.0
2015-Jul-15 04:31N 44°36' E 037°54'0 0.0
2015-Jul-15 03:31N 44°36' E 037°54'0 0.0
2015-Jul-15 02:33N 44°36' E 037°54'0 0.0
2015-Jul-15 01:33N 44°36' E 037°54'0 0.0
2015-Jul-15 00:33N 44°36' E 037°54'0 0.0
2015-Jul-14 23:30N 44°36' E 037°54'0 0.0
2015-Jul-14 22:33N 44°36' E 037°54'0 0.0
2015-Jul-14 21:33N 44°36' E 037°54'0 0.0
2015-Jul-14 20:33N 44°36' E 037°54'0 0.0
2015-Jul-14 19:33N 44°36' E 037°54'0 0.0
2015-Jul-14 18:33N 44°36' E 037°54'0 0.0
2015-Jul-14 17:33N 44°36' E 037°54'0 0.0
2015-Jul-14 16:33N 44°36' E 037°54'0 0.0
2015-Jul-14 15:33N 44°36' E 037°54'0 0.0
2015-Jul-14 14:33N 44°36' E 037°54'0 0.0
2015-Jul-14 13:33N 44°36' E 037°54'0 0.0
2015-Jul-14 12:27N 44°36' E 037°54'0 0.0
2015-Jul-14 11:33N 44°36' E 037°54'0 0.0
2015-Jul-14 10:33N 44°36' E 037°54'0 0.0
2015-Jul-14 09:33N 44°36' E 037°54'0 0.0
2015-Jul-14 08:33N 44°36' E 037°54'0 0.0
2015-Jul-14 07:33N 44°36' E 037°54'0 0.0
2015-Jul-14 06:33N 44°36' E 037°54'0 0.0
2015-Jul-14 05:33N 44°36' E 037°54'0 0.0
2015-Jul-14 04:33N 44°36' E 037°54'0 0.0
2015-Jul-14 03:30N 44°36' E 037°54'0 0.0
2015-Jul-14 02:33N 44°36' E 037°54'0 0.0
2015-Jul-14 01:33N 44°36' E 037°54'0 0.0
2015-Jul-14 00:33N 44°36' E 037°54'0 0.0
2015-Jul-13 23:33N 44°36' E 037°54'0 0.0
2015-Jul-13 22:33N 44°36' E 037°54'0 0.0
2015-Jul-13 21:33N 44°36' E 037°54'0 0.0
2015-Jul-13 20:33N 44°36' E 037°54'0 0.0
2015-Jul-13 19:33N 44°36' E 037°54'0 0.0
2015-Jul-13 18:33N 44°36' E 037°54'0 0.0
2015-Jul-13 17:30N 44°36' E 037°54'0 0.0
2015-Jul-13 16:33N 44°36' E 037°54'0 0.0
2015-Jul-13 15:33N 44°36' E 037°54'0 0.0
2015-Jul-13 14:33N 44°36' E 037°54'0 0.0
2015-Jul-13 13:33N 44°36' E 037°54'0 0.0
2015-Jul-13 12:33N 44°36' E 037°54'0 0.0
2015-Jul-13 11:33N 44°36' E 037°54'0 0.0
2015-Jul-13 10:33N 44°36' E 037°54'0 0.0
2015-Jul-13 09:33N 44°36' E 037°54'0 0.0
2015-Jul-13 08:33N 44°36' E 037°54'0 0.0
2015-Jul-13 07:33N 44°36' E 037°54'0 0.0
2015-Jul-13 06:33N 44°36' E 037°54'0 0.1
2015-Jul-13 05:33N 44°36' E 037°54'0 0.0
2015-Jul-13 04:33N 44°36' E 037°54'0 0.0
2015-Jul-13 03:33N 44°36' E 037°54'0 0.1
2015-Jul-13 02:33N 44°36' E 037°54'0 0.2
2015-Jul-13 01:33N 44°36' E 037°54'0 0.0
2015-Jul-13 00:33N 44°36' E 037°54'0 0.0
2015-Jul-12 23:33N 44°36' E 037°54'0 0.0
2015-Jul-12 22:33N 44°36' E 037°54'0 0.0
2015-Jul-12 21:33N 44°36' E 037°54'0 0.0
2015-Jul-12 20:33N 44°36' E 037°54'0 0.0
2015-Jul-12 19:33N 44°36' E 037°54'0 0.0
2015-Jul-12 18:33N 44°36' E 037°54'0 0.0
2015-Jul-12 17:33N 44°36' E 037°54'0 0.1
2015-Jul-12 16:33N 44°36' E 037°54'0 0.0
2015-Jul-12 15:33N 44°36' E 037°54'0 0.0
2015-Jul-12 14:33N 44°36' E 037°54'0 0.0
2015-Jul-12 13:33N 44°36' E 037°54'0 0.0
2015-Jul-12 12:33N 44°36' E 037°54'0 0.0
2015-Jul-12 11:33N 44°36' E 037°54'0 0.0
2015-Jul-12 10:33N 44°36' E 037°54'0 0.1
2015-Jul-12 09:18N 44°36' E 037°54'0 0.1
2015-Jul-12 08:33N 44°36' E 037°54'0 0.0
2015-Jul-11 17:09N 44°36' E 037°54'0 0.0
2015-Jul-11 16:33N 44°36' E 037°54'0 0.0
2015-Jul-11 15:33N 44°36' E 037°54'0 0.0
2015-Jul-11 14:33N 44°36' E 037°54'0 0.0
2015-Jul-11 13:33N 44°36' E 037°54'0 0.0
2015-Jul-11 12:33N 44°36' E 037°54'0 0.0
2015-Jul-11 11:33N 44°36' E 037°54'0 0.0
2015-Jul-11 10:33N 44°36' E 037°54'0 0.3
2015-Jul-11 09:33N 44°36' E 037°54'0 0.0
2015-Jul-11 08:33N 44°36' E 037°54'0 0.1
2015-Jul-11 07:33N 44°36' E 037°54'0 0.1
2015-Jul-11 06:33N 44°36' E 037°54'  

Dump ship's entire track history